Loznica, Serbia
Current Conditions -  °F | °C
As of 5:00 PM on Friday 24 Oct 2014 (Local Time) from LQTZ Reporting Station
Broken Clouds Broken Clouds  
Wind Chill:   Ceiling: 1500
Heat Index:   Visibility: 6mi
Dew Point:   Wind: 6mph
Humidity: 100%   Direction: 280°W
Pressure: 30"   Gusts: NA
Location:  44.53°N, 19.22°E
Report Text: LQTZ 241500Z 28005KT 9999 BKN015 BKN030 09/09 Q1016
Loading
Personal Weather Stations






























Interactive Weather Map
Tropical Storm Tracking
New forecast layout! Learn more

10-Day Weather Forecast

Advertisements
Track Severe Weather on mobile